sensor_id;sensor_type;location;lat;lon;timestamp;temperature;humidity
25688;DHT22;17407;51.120;3.702;2023-09-12T00:00:08;20.30;99.90
25688;DHT22;17407;51.120;3.702;2023-09-12T00:02:34;20.30;99.90
25688;DHT22;17407;51.120;3.702;2023-09-12T00:05:00;20.20;99.90
25688;DHT22;17407;51.120;3.702;2023-09-12T00:07:25;20.20;99.90
25688;DHT22;17407;51.120;3.702;2023-09-12T00:09:51;20.20;99.90
25688;DHT22;17407;51.120;3.702;2023-09-12T00:12:17;20.20;99.90
25688;DHT22;17407;51.120;3.702;2023-09-12T00:14:42;20.10;99.90
25688;DHT22;17407;51.120;3.702;2023-09-12T00:17:09;20.00;99.90
25688;DHT22;17407;51.120;3.702;2023-09-12T00:19:34;19.90;99.90
25688;DHT22;17407;51.120;3.702;2023-09-12T00:22:00;19.90;99.90
25688;DHT22;17407;51.120;3.702;2023-09-12T00:24:26;19.90;99.90
25688;DHT22;17407;51.120;3.702;2023-09-12T00:26:52;19.90;99.90
25688;DHT22;17407;51.120;3.702;2023-09-12T00:29:17;19.90;99.90
25688;DHT22;17407;51.120;3.702;2023-09-12T00:31:43;19.90;99.90
25688;DHT22;17407;51.120;3.702;2023-09-12T00:34:08;19.90;99.90
25688;DHT22;17407;51.120;3.702;2023-09-12T00:36:34;19.90;99.90
25688;DHT22;17407;51.120;3.702;2023-09-12T00:39:02;19.90;99.90
25688;DHT22;17407;51.120;3.702;2023-09-12T00:41:28;19.90;99.90
25688;DHT22;17407;51.120;3.702;2023-09-12T00:43:53;19.90;99.90
25688;DHT22;17407;51.120;3.702;2023-09-12T00:46:21;19.80;99.90
25688;DHT22;17407;51.120;3.702;2023-09-12T00:48:49;19.80;99.90
25688;DHT22;17407;51.120;3.702;2023-09-12T00:51:15;19.80;99.90
25688;DHT22;17407;51.120;3.702;2023-09-12T00:53:42;19.80;99.90
25688;DHT22;17407;51.120;3.702;2023-09-12T00:56:08;19.80;99.90
25688;DHT22;17407;51.120;3.702;2023-09-12T00:58:34;19.80;99.90
25688;DHT22;17407;51.120;3.702;2023-09-12T01:01:00;19.80;99.90
25688;DHT22;17407;51.120;3.702;2023-09-12T01:03:27;19.80;99.90
25688;DHT22;17407;51.120;3.702;2023-09-12T01:05:53;19.80;99.90
25688;DHT22;17407;51.120;3.702;2023-09-12T01:08:19;19.80;99.90
25688;DHT22;17407;51.120;3.702;2023-09-12T01:10:47;19.80;99.90
25688;DHT22;17407;51.120;3.702;2023-09-12T01:13:14;19.80;99.90
25688;DHT22;17407;51.120;3.702;2023-09-12T01:15:41;19.80;99.90
25688;DHT22;17407;51.120;3.702;2023-09-12T01:18:06;19.80;99.90
25688;DHT22;17407;51.120;3.702;2023-09-12T01:20:34;19.90;99.90
25688;DHT22;17407;51.120;3.702;2023-09-12T01:28:51;19.80;99.90
25688;DHT22;17407;51.120;3.702;2023-09-12T01:31:18;19.80;99.90
25688;DHT22;17407;51.120;3.702;2023-09-12T01:33:44;19.70;99.90
25688;DHT22;17407;51.120;3.702;2023-09-12T01:36:10;19.70;99.90
25688;DHT22;17407;51.120;3.702;2023-09-12T01:38:35;19.60;99.90
25688;DHT22;17407;51.120;3.702;2023-09-12T01:41:01;19.60;99.90
25688;DHT22;17407;51.120;3.702;2023-09-12T01:43:27;19.60;99.90
25688;DHT22;17407;51.120;3.702;2023-09-12T01:45:57;19.60;99.90
25688;DHT22;17407;51.120;3.702;2023-09-12T01:48:26;19.60;99.90
25688;DHT22;17407;51.120;3.702;2023-09-12T01:50:56;19.60;99.90
25688;DHT22;17407;51.120;3.702;2023-09-12T01:53:22;19.60;99.90
25688;DHT22;17407;51.120;3.702;2023-09-12T01:55:48;19.60;99.90
25688;DHT22;17407;51.120;3.702;2023-09-12T01:58:14;19.60;99.90
25688;DHT22;17407;51.120;3.702;2023-09-12T02:00:40;19.60;99.90
25688;DHT22;17407;51.120;3.702;2023-09-12T02:03:06;19.60;99.90
25688;DHT22;17407;51.120;3.702;2023-09-12T02:05:32;19.50;99.90
25688;DHT22;17407;51.120;3.702;2023-09-12T02:07:58;19.60;99.90
25688;DHT22;17407;51.120;3.702;2023-09-12T02:10:27;19.60;99.90
25688;DHT22;17407;51.120;3.702;2023-09-12T02:12:53;19.50;99.90
25688;DHT22;17407;51.120;3.702;2023-09-12T02:15:18;19.50;99.90
25688;DHT22;17407;51.120;3.702;2023-09-12T02:17:44;19.50;99.90
25688;DHT22;17407;51.120;3.702;2023-09-12T02:20:10;19.50;99.90
25688;DHT22;17407;51.120;3.702;2023-09-12T02:22:37;19.40;99.90
25688;DHT22;17407;51.120;3.702;2023-09-12T02:25:05;19.50;99.90
25688;DHT22;17407;51.120;3.702;2023-09-12T02:27:31;19.50;99.90
25688;DHT22;17407;51.120;3.702;2023-09-12T02:29:56;19.50;99.90
25688;DHT22;17407;51.120;3.702;2023-09-12T02:32:22;19.50;99.90
25688;DHT22;17407;51.120;3.702;2023-09-12T02:34:48;19.50;99.90
25688;DHT22;17407;51.120;3.702;2023-09-12T02:37:13;19.50;99.90
25688;DHT22;17407;51.120;3.702;2023-09-12T02:39:39;19.50;99.90
25688;DHT22;17407;51.120;3.702;2023-09-12T02:42:05;19.50;99.90
25688;DHT22;17407;51.120;3.702;2023-09-12T02:44:31;19.60;99.90
25688;DHT22;17407;51.120;3.702;2023-09-12T02:46:56;19.60;99.90
25688;DHT22;17407;51.120;3.702;2023-09-12T02:49:22;19.50;99.90
25688;DHT22;17407;51.120;3.702;2023-09-12T02:51:47;19.50;99.90
25688;DHT22;17407;51.120;3.702;2023-09-12T02:54:13;19.40;99.90
25688;DHT22;17407;51.120;3.702;2023-09-12T02:56:39;19.40;99.90
25688;DHT22;17407;51.120;3.702;2023-09-12T02:59:04;19.40;99.90
25688;DHT22;17407;51.120;3.702;2023-09-12T03:01:30;19.40;99.90
25688;DHT22;17407;51.120;3.702;2023-09-12T03:03:57;19.40;99.90
25688;DHT22;17407;51.120;3.702;2023-09-12T03:06:23;19.40;99.90
25688;DHT22;17407;51.120;3.702;2023-09-12T03:08:49;19.40;99.90
25688;DHT22;17407;51.120;3.702;2023-09-12T03:11:15;19.40;99.90
25688;DHT22;17407;51.120;3.702;2023-09-12T03:13:41;19.40;99.90
25688;DHT22;17407;51.120;3.702;2023-09-12T03:16:13;19.40;99.90
25688;DHT22;17407;51.120;3.702;2023-09-12T03:18:39;19.40;99.90
25688;DHT22;17407;51.120;3.702;2023-09-12T03:21:05;19.50;99.90
25688;DHT22;17407;51.120;3.702;2023-09-12T03:23:31;19.50;99.90
25688;DHT22;17407;51.120;3.702;2023-09-12T03:26:02;19.50;99.90
25688;DHT22;17407;51.120;3.702;2023-09-12T03:28:29;19.50;99.90
25688;DHT22;17407;51.120;3.702;2023-09-12T03:31:05;19.50;99.90
25688;DHT22;17407;51.120;3.702;2023-09-12T03:33:31;19.60;99.90
25688;DHT22;17407;51.120;3.702;2023-09-12T03:35:57;19.50;99.90
25688;DHT22;17407;51.120;3.702;2023-09-12T03:38:22;19.40;99.90
25688;DHT22;17407;51.120;3.702;2023-09-12T03:40:48;19.50;99.90
25688;DHT22;17407;51.120;3.702;2023-09-12T03:43:13;19.60;99.90
25688;DHT22;17407;51.120;3.702;2023-09-12T03:45:39;19.60;99.90
25688;DHT22;17407;51.120;3.702;2023-09-12T03:48:05;19.60;99.90
25688;DHT22;17407;51.120;3.702;2023-09-12T03:50:31;19.60;99.90
25688;DHT22;17407;51.120;3.702;2023-09-12T03:52:56;19.60;99.90
25688;DHT22;17407;51.120;3.702;2023-09-12T03:55:22;19.50;99.90
25688;DHT22;17407;51.120;3.702;2023-09-12T03:57:48;19.50;99.90
25688;DHT22;17407;51.120;3.702;2023-09-12T04:00:14;19.50;99.90
25688;DHT22;17407;51.120;3.702;2023-09-12T04:02:39;19.50;99.90
25688;DHT22;17407;51.120;3.702;2023-09-12T04:05:05;19.50;99.90
25688;DHT22;17407;51.120;3.702;2023-09-12T04:07:31;19.50;99.90
25688;DHT22;17407;51.120;3.702;2023-09-12T04:09:57;19.60;99.90
25688;DHT22;17407;51.120;3.702;2023-09-12T04:12:22;19.60;99.90
25688;DHT22;17407;51.120;3.702;2023-09-12T04:14:50;19.60;99.90
25688;DHT22;17407;51.120;3.702;2023-09-12T04:17:16;19.60;99.90
25688;DHT22;17407;51.120;3.702;2023-09-12T04:19:42;19.60;99.90
25688;DHT22;17407;51.120;3.702;2023-09-12T04:22:08;19.60;99.90
25688;DHT22;17407;51.120;3.702;2023-09-12T04:24:33;19.70;99.90
25688;DHT22;17407;51.120;3.702;2023-09-12T04:26:59;19.70;99.90
25688;DHT22;17407;51.120;3.702;2023-09-12T04:29:24;19.80;99.90
25688;DHT22;17407;51.120;3.702;2023-09-12T04:31:50;19.80;99.90
25688;DHT22;17407;51.120;3.702;2023-09-12T04:34:18;19.80;99.90
25688;DHT22;17407;51.120;3.702;2023-09-12T04:36:43;19.80;99.90
25688;DHT22;17407;51.120;3.702;2023-09-12T04:39:09;19.70;99.90
25688;DHT22;17407;51.120;3.702;2023-09-12T04:41:35;19.70;99.90
25688;DHT22;17407;51.120;3.702;2023-09-12T04:44:00;19.70;99.90
25688;DHT22;17407;51.120;3.702;2023-09-12T04:46:27;19.60;99.90
25688;DHT22;17407;51.120;3.702;2023-09-12T04:48:53;19.60;99.90
25688;DHT22;17407;51.120;3.702;2023-09-12T04:51:19;19.60;99.90
25688;DHT22;17407;51.120;3.702;2023-09-12T04:53:44;19.50;99.90
25688;DHT22;17407;51.120;3.702;2023-09-12T04:56:10;19.50;99.90
25688;DHT22;17407;51.120;3.702;2023-09-12T04:58:36;19.50;99.90
25688;DHT22;17407;51.120;3.702;2023-09-12T05:01:02;19.50;99.90
25688;DHT22;17407;51.120;3.702;2023-09-12T05:03:28;19.50;99.90
25688;DHT22;17407;51.120;3.702;2023-09-12T05:05:54;19.50;99.90
25688;DHT22;17407;51.120;3.702;2023-09-12T05:08:19;19.50;99.90
25688;DHT22;17407;51.120;3.702;2023-09-12T05:10:45;19.50;99.90
25688;DHT22;17407;51.120;3.702;2023-09-12T05:13:11;19.50;99.90
25688;DHT22;17407;51.120;3.702;2023-09-12T05:15:37;19.50;99.90
25688;DHT22;17407;51.120;3.702;2023-09-12T05:18:05;19.50;99.90
25688;DHT22;17407;51.120;3.702;2023-09-12T05:20:31;19.40;99.90
25688;DHT22;17407;51.120;3.702;2023-09-12T05:22:57;19.40;99.90
25688;DHT22;17407;51.120;3.702;2023-09-12T05:25:23;19.40;99.90
25688;DHT22;17407;51.120;3.702;2023-09-12T05:27:48;19.40;99.90
25688;DHT22;17407;51.120;3.702;2023-09-12T05:30:14;19.50;99.90
25688;DHT22;17407;51.120;3.702;2023-09-12T05:32:41;19.50;99.90
25688;DHT22;17407;51.120;3.702;2023-09-12T05:35:07;19.50;99.90
25688;DHT22;17407;51.120;3.702;2023-09-12T05:37:33;19.50;99.90
25688;DHT22;17407;51.120;3.702;2023-09-12T05:39:58;19.50;99.90
25688;DHT22;17407;51.120;3.702;2023-09-12T05:42:24;19.50;99.90
25688;DHT22;17407;51.120;3.702;2023-09-12T05:44:50;19.50;99.90
25688;DHT22;17407;51.120;3.702;2023-09-12T05:47:19;19.50;99.90
25688;DHT22;17407;51.120;3.702;2023-09-12T05:49:45;19.40;99.90
25688;DHT22;17407;51.120;3.702;2023-09-12T05:52:11;19.50;99.90
25688;DHT22;17407;51.120;3.702;2023-09-12T05:54:37;19.50;99.90
25688;DHT22;17407;51.120;3.702;2023-09-12T05:57:03;19.50;99.90
25688;DHT22;17407;51.120;3.702;2023-09-12T05:59:29;19.60;99.90
25688;DHT22;17407;51.120;3.702;2023-09-12T06:01:54;19.60;99.90
25688;DHT22;17407;51.120;3.702;2023-09-12T06:04:21;19.60;99.90
25688;DHT22;17407;51.120;3.702;2023-09-12T06:06:47;19.50;99.90
25688;DHT22;17407;51.120;3.702;2023-09-12T06:09:13;19.50;99.90
25688;DHT22;17407;51.120;3.702;2023-09-12T06:11:38;19.50;99.90
25688;DHT22;17407;51.120;3.702;2023-09-12T06:14:04;19.50;99.90
25688;DHT22;17407;51.120;3.702;2023-09-12T06:16:30;19.50;99.90
25688;DHT22;17407;51.120;3.702;2023-09-12T06:18:55;19.60;99.90
25688;DHT22;17407;51.120;3.702;2023-09-12T06:21:21;19.50;99.90
25688;DHT22;17407;51.120;3.702;2023-09-12T06:24:15;19.50;99.90
25688;DHT22;17407;51.120;3.702;2023-09-12T06:26:42;19.60;99.90
25688;DHT22;17407;51.120;3.702;2023-09-12T06:29:08;19.50;99.90
25688;DHT22;17407;51.120;3.702;2023-09-12T06:31:34;19.60;99.90
25688;DHT22;17407;51.120;3.702;2023-09-12T06:34:01;19.50;99.90
25688;DHT22;17407;51.120;3.702;2023-09-12T06:36:27;19.50;99.90
25688;DHT22;17407;51.120;3.702;2023-09-12T06:38:55;19.60;99.90
25688;DHT22;17407;51.120;3.702;2023-09-12T06:41:21;19.60;99.90
25688;DHT22;17407;51.120;3.702;2023-09-12T06:43:47;19.60;99.90
25688;DHT22;17407;51.120;3.702;2023-09-12T06:46:15;19.60;99.90
25688;DHT22;17407;51.120;3.702;2023-09-12T06:48:43;19.60;99.90
25688;DHT22;17407;51.120;3.702;2023-09-12T06:51:10;19.60;99.90
25688;DHT22;17407;51.120;3.702;2023-09-12T06:53:36;19.50;99.90
25688;DHT22;17407;51.120;3.702;2023-09-12T06:56:07;19.50;99.90
25688;DHT22;17407;51.120;3.702;2023-09-12T06:58:33;19.50;99.90
25688;DHT22;17407;51.120;3.702;2023-09-12T07:01:05;19.40;99.90
25688;DHT22;17407;51.120;3.702;2023-09-12T07:03:32;19.40;99.90
25688;DHT22;17407;51.120;3.702;2023-09-12T07:05:58;19.50;99.90
25688;DHT22;17407;51.120;3.702;2023-09-12T07:08:24;19.50;99.90
25688;DHT22;17407;51.120;3.702;2023-09-12T07:10:50;19.50;99.90
25688;DHT22;17407;51.120;3.702;2023-09-12T07:13:15;19.50;99.90
25688;DHT22;17407;51.120;3.702;2023-09-12T07:15:41;19.50;99.90
25688;DHT22;17407;51.120;3.702;2023-09-12T07:18:07;19.50;99.90
25688;DHT22;17407;51.120;3.702;2023-09-12T07:20:36;19.50;99.90
25688;DHT22;17407;51.120;3.702;2023-09-12T07:23:01;19.50;99.90
25688;DHT22;17407;51.120;3.702;2023-09-12T07:25:27;19.70;99.90
25688;DHT22;17407;51.120;3.702;2023-09-12T07:27:53;19.80;99.90
25688;DHT22;17407;51.120;3.702;2023-09-12T07:30:19;19.80;99.90
25688;DHT22;17407;51.120;3.702;2023-09-12T07:32:44;19.80;99.90
25688;DHT22;17407;51.120;3.702;2023-09-12T07:35:10;19.70;99.90
25688;DHT22;17407;51.120;3.702;2023-09-12T07:37:36;19.80;99.90
25688;DHT22;17407;51.120;3.702;2023-09-12T07:40:02;19.80;99.90
25688;DHT22;17407;51.120;3.702;2023-09-12T07:42:35;19.90;99.90
25688;DHT22;17407;51.120;3.702;2023-09-12T07:45:01;20.00;99.90
25688;DHT22;17407;51.120;3.702;2023-09-12T07:47:28;20.10;99.90
25688;DHT22;17407;51.120;3.702;2023-09-12T07:49:54;20.00;99.90
25688;DHT22;17407;51.120;3.702;2023-09-12T07:52:20;20.10;99.90
25688;DHT22;17407;51.120;3.702;2023-09-12T07:54:45;20.20;99.90
25688;DHT22;17407;51.120;3.702;2023-09-12T07:57:11;20.20;99.90
25688;DHT22;17407;51.120;3.702;2023-09-12T07:59:36;20.30;99.90
25688;DHT22;17407;51.120;3.702;2023-09-12T08:02:02;20.40;99.90
25688;DHT22;17407;51.120;3.702;2023-09-12T08:04:28;20.50;99.90
25688;DHT22;17407;51.120;3.702;2023-09-12T08:06:54;20.50;99.90
25688;DHT22;17407;51.120;3.702;2023-09-12T08:09:20;20.50;99.90
25688;DHT22;17407;51.120;3.702;2023-09-12T08:11:45;20.50;99.90
25688;DHT22;17407;51.120;3.702;2023-09-12T08:14:11;20.50;99.90
25688;DHT22;17407;51.120;3.702;2023-09-12T08:16:37;20.60;99.90
25688;DHT22;17407;51.120;3.702;2023-09-12T08:19:03;20.60;99.90
25688;DHT22;17407;51.120;3.702;2023-09-12T08:21:28;20.70;99.90
25688;DHT22;17407;51.120;3.702;2023-09-12T08:23:55;20.70;99.90
25688;DHT22;17407;51.120;3.702;2023-09-12T08:26:21;20.60;99.90
25688;DHT22;17407;51.120;3.702;2023-09-12T08:28:46;20.50;99.90
25688;DHT22;17407;51.120;3.702;2023-09-12T08:31:12;20.60;99.90
25688;DHT22;17407;51.120;3.702;2023-09-12T08:33:38;20.50;99.90
25688;DHT22;17407;51.120;3.702;2023-09-12T08:36:03;20.50;99.90
25688;DHT22;17407;51.120;3.702;2023-09-12T08:38:29;20.60;99.90
25688;DHT22;17407;51.120;3.702;2023-09-12T08:40:55;20.50;99.90
25688;DHT22;17407;51.120;3.702;2023-09-12T08:43:22;20.60;99.90
25688;DHT22;17407;51.120;3.702;2023-09-12T08:45:47;20.60;99.90
25688;DHT22;17407;51.120;3.702;2023-09-12T08:48:13;20.70;99.90
25688;DHT22;17407;51.120;3.702;2023-09-12T08:50:41;20.80;99.90
25688;DHT22;17407;51.120;3.702;2023-09-12T08:53:07;20.90;99.90
25688;DHT22;17407;51.120;3.702;2023-09-12T08:55:33;21.00;99.90
25688;DHT22;17407;51.120;3.702;2023-09-12T08:58:02;21.00;99.90
25688;DHT22;17407;51.120;3.702;2023-09-12T09:00:28;21.00;99.90
25688;DHT22;17407;51.120;3.702;2023-09-12T09:02:54;21.10;99.90
25688;DHT22;17407;51.120;3.702;2023-09-12T09:05:21;21.10;99.90
25688;DHT22;17407;51.120;3.702;2023-09-12T09:07:48;21.20;99.90
25688;DHT22;17407;51.120;3.702;2023-09-12T09:10:18;21.20;99.90
25688;DHT22;17407;51.120;3.702;2023-09-12T09:12:46;21.20;99.90
25688;DHT22;17407;51.120;3.702;2023-09-12T09:15:25;21.20;99.90
25688;DHT22;17407;51.120;3.702;2023-09-12T09:17:52;21.40;99.90
25688;DHT22;17407;51.120;3.702;2023-09-12T09:20:32;21.40;99.90
25688;DHT22;17407;51.120;3.702;2023-09-12T09:25:25;21.50;99.90
25688;DHT22;17407;51.120;3.702;2023-09-12T09:27:51;21.50;99.90
25688;DHT22;17407;51.120;3.702;2023-09-12T09:30:16;21.50;99.90
25688;DHT22;17407;51.120;3.702;2023-09-12T09:32:44;21.50;99.90
25688;DHT22;17407;51.120;3.702;2023-09-12T09:35:11;21.60;99.90
25688;DHT22;17407;51.120;3.702;2023-09-12T09:37:37;21.60;99.90
25688;DHT22;17407;51.120;3.702;2023-09-12T09:40:06;21.60;99.90
25688;DHT22;17407;51.120;3.702;2023-09-12T09:42:32;21.70;99.90
25688;DHT22;17407;51.120;3.702;2023-09-12T09:44:58;21.80;99.90
25688;DHT22;17407;51.120;3.702;2023-09-12T09:47:24;21.80;99.90
25688;DHT22;17407;51.120;3.702;2023-09-12T09:49:51;21.80;99.90
25688;DHT22;17407;51.120;3.702;2023-09-12T09:52:25;21.80;99.90
25688;DHT22;17407;51.120;3.702;2023-09-12T09:54:52;21.90;99.90
25688;DHT22;17407;51.120;3.702;2023-09-12T09:57:18;21.90;99.90
25688;DHT22;17407;51.120;3.702;2023-09-12T09:59:49;22.00;99.90
25688;DHT22;17407;51.120;3.702;2023-09-12T10:02:18;22.10;99.90
25688;DHT22;17407;51.120;3.702;2023-09-12T10:04:48;22.10;99.90
25688;DHT22;17407;51.120;3.702;2023-09-12T10:07:16;22.10;99.90
25688;DHT22;17407;51.120;3.702;2023-09-12T10:09:43;22.00;99.90
25688;DHT22;17407;51.120;3.702;2023-09-12T10:12:10;22.00;99.90
25688;DHT22;17407;51.120;3.702;2023-09-12T10:14:39;22.00;99.90
25688;DHT22;17407;51.120;3.702;2023-09-12T10:17:05;22.10;99.90
25688;DHT22;17407;51.120;3.702;2023-09-12T10:19:48;22.10;99.90
25688;DHT22;17407;51.120;3.702;2023-09-12T10:22:32;22.00;99.90
25688;DHT22;17407;51.120;3.702;2023-09-12T10:24:59;22.20;99.90
25688;DHT22;17407;51.120;3.702;2023-09-12T10:27:26;22.40;99.90
25688;DHT22;17407;51.120;3.702;2023-09-12T10:29:52;22.60;99.90
25688;DHT22;17407;51.120;3.702;2023-09-12T10:32:19;22.60;99.90
25688;DHT22;17407;51.120;3.702;2023-09-12T10:34:48;22.70;99.90
25688;DHT22;17407;51.120;3.702;2023-09-12T10:37:19;22.70;99.90
25688;DHT22;17407;51.120;3.702;2023-09-12T10:39:48;22.90;99.90
25688;DHT22;17407;51.120;3.702;2023-09-12T10:42:16;22.90;99.90
25688;DHT22;17407;51.120;3.702;2023-09-12T10:44:43;23.20;99.90
25688;DHT22;17407;51.120;3.702;2023-09-12T10:47:10;23.50;99.90
25688;DHT22;17407;51.120;3.702;2023-09-12T10:49:37;23.80;99.90
25688;DHT22;17407;51.120;3.702;2023-09-12T10:52:03;23.80;99.90
25688;DHT22;17407;51.120;3.702;2023-09-12T10:54:39;23.70;99.90
25688;DHT22;17407;51.120;3.702;2023-09-12T10:57:10;23.90;99.90
25688;DHT22;17407;51.120;3.702;2023-09-12T11:02:37;23.90;99.90
25688;DHT22;17407;51.120;3.702;2023-09-12T11:05:50;23.80;99.90
25688;DHT22;17407;51.120;3.702;2023-09-12T11:07:50;23.80;99.90
25688;DHT22;17407;51.120;3.702;2023-09-12T11:10:20;23.80;99.90
25688;DHT22;17407;51.120;3.702;2023-09-12T11:12:47;23.80;99.90
25688;DHT22;17407;51.120;3.702;2023-09-12T11:15:14;23.70;99.90
25688;DHT22;17407;51.120;3.702;2023-09-12T11:17:49;23.80;99.90
25688;DHT22;17407;51.120;3.702;2023-09-12T11:20:16;23.90;99.90
25688;DHT22;17407;51.120;3.702;2023-09-12T11:22:46;24.00;99.90
25688;DHT22;17407;51.120;3.702;2023-09-12T11:25:16;24.20;99.90
25688;DHT22;17407;51.120;3.702;2023-09-12T11:32:47;24.40;99.90
25688;DHT22;17407;51.120;3.702;2023-09-12T11:35:14;24.50;99.90
25688;DHT22;17407;51.120;3.702;2023-09-12T11:37:49;24.50;99.90
25688;DHT22;17407;51.120;3.702;2023-09-12T11:40:16;24.40;99.90
25688;DHT22;17407;51.120;3.702;2023-09-12T11:42:43;24.50;99.90
25688;DHT22;17407;51.120;3.702;2023-09-12T11:45:10;24.60;99.90
25688;DHT22;17407;51.120;3.702;2023-09-12T11:47:42;24.80;99.90
25688;DHT22;17407;51.120;3.702;2023-09-12T11:53:03;24.80;99.90
25688;DHT22;17407;51.120;3.702;2023-09-12T11:55:49;24.90;99.90
25688;DHT22;17407;51.120;3.702;2023-09-12T11:58:18;24.90;99.90
25688;DHT22;17407;51.120;3.702;2023-09-12T12:00:51;24.80;99.90
25688;DHT22;17407;51.120;3.702;2023-09-12T12:03:24;24.60;99.90
25688;DHT22;17407;51.120;3.702;2023-09-12T12:05:50;24.40;99.90
25688;DHT22;17407;51.120;3.702;2023-09-12T12:08:17;24.50;99.90
25688;DHT22;17407;51.120;3.702;2023-09-12T12:10:43;24.60;99.90
25688;DHT22;17407;51.120;3.702;2023-09-12T12:13:19;24.60;99.90
25688;DHT22;17407;51.120;3.702;2023-09-12T12:15:45;24.60;99.90
25688;DHT22;17407;51.120;3.702;2023-09-12T12:18:11;24.60;99.90
25688;DHT22;17407;51.120;3.702;2023-09-12T12:20:37;24.60;99.90
25688;DHT22;17407;51.120;3.702;2023-09-12T12:23:03;24.70;99.90
25688;DHT22;17407;51.120;3.702;2023-09-12T12:25:32;24.80;99.90
25688;DHT22;17407;51.120;3.702;2023-09-12T12:27:59;24.90;99.90
25688;DHT22;17407;51.120;3.702;2023-09-12T12:30:25;25.00;99.90
25688;DHT22;17407;51.120;3.702;2023-09-12T12:32:51;25.00;99.90
25688;DHT22;17407;51.120;3.702;2023-09-12T12:35:22;25.30;99.90
25688;DHT22;17407;51.120;3.702;2023-09-12T12:37:53;25.50;99.90
25688;DHT22;17407;51.120;3.702;2023-09-12T12:40:19;26.00;99.90
25688;DHT22;17407;51.120;3.702;2023-09-12T12:42:45;26.60;99.90
25688;DHT22;17407;51.120;3.702;2023-09-12T12:45:16;27.30;99.90
25688;DHT22;17407;51.120;3.702;2023-09-12T12:47:42;27.70;99.90
25688;DHT22;17407;51.120;3.702;2023-09-12T12:50:17;27.90;99.90
25688;DHT22;17407;51.120;3.702;2023-09-12T12:52:47;28.00;99.90
25688;DHT22;17407;51.120;3.702;2023-09-12T12:55:13;28.10;99.90
25688;DHT22;17407;51.120;3.702;2023-09-12T12:57:40;28.10;99.90
25688;DHT22;17407;51.120;3.702;2023-09-12T13:00:12;28.20;99.90
25688;DHT22;17407;51.120;3.702;2023-09-12T13:02:42;28.30;99.90
25688;DHT22;17407;51.120;3.702;2023-09-12T13:05:28;28.20;99.90
25688;DHT22;17407;51.120;3.702;2023-09-12T13:07:54;28.30;99.90
25688;DHT22;17407;51.120;3.702;2023-09-12T13:10:21;28.40;99.90
25688;DHT22;17407;51.120;3.702;2023-09-12T13:12:47;28.60;99.90
25688;DHT22;17407;51.120;3.702;2023-09-12T13:15:14;28.80;99.90
25688;DHT22;17407;51.120;3.702;2023-09-12T13:17:41;29.00;99.90
25688;DHT22;17407;51.120;3.702;2023-09-12T13:20:07;29.20;99.90
25688;DHT22;17407;51.120;3.702;2023-09-12T13:22:37;29.40;99.90
25688;DHT22;17407;51.120;3.702;2023-09-12T13:25:03;29.50;99.90
25688;DHT22;17407;51.120;3.702;2023-09-12T13:27:29;29.60;99.90
25688;DHT22;17407;51.120;3.702;2023-09-12T13:29:54;29.50;99.90
25688;DHT22;17407;51.120;3.702;2023-09-12T13:32:20;29.40;99.90
25688;DHT22;17407;51.120;3.702;2023-09-12T13:34:46;29.60;99.90
25688;DHT22;17407;51.120;3.702;2023-09-12T13:37:11;29.60;99.90
25688;DHT22;17407;51.120;3.702;2023-09-12T13:39:37;29.40;99.90
25688;DHT22;17407;51.120;3.702;2023-09-12T13:42:03;29.60;99.90
25688;DHT22;17407;51.120;3.702;2023-09-12T13:44:31;29.80;99.90
25688;DHT22;17407;51.120;3.702;2023-09-12T13:46:56;29.80;99.90
25688;DHT22;17407;51.120;3.702;2023-09-12T13:49:22;29.80;99.90
25688;DHT22;17407;51.120;3.702;2023-09-12T13:51:48;29.70;99.90
25688;DHT22;17407;51.120;3.702;2023-09-12T13:54:13;29.40;99.90
25688;DHT22;17407;51.120;3.702;2023-09-12T13:56:42;29.20;99.90
25688;DHT22;17407;51.120;3.702;2023-09-12T13:59:08;29.10;99.90
25688;DHT22;17407;51.120;3.702;2023-09-12T14:01:33;29.00;99.90
25688;DHT22;17407;51.120;3.702;2023-09-12T14:03:59;29.00;99.90
25688;DHT22;17407;51.120;3.702;2023-09-12T14:06:25;29.10;99.90
25688;DHT22;17407;51.120;3.702;2023-09-12T14:08:52;29.20;99.90
25688;DHT22;17407;51.120;3.702;2023-09-12T14:11:18;29.30;99.90
25688;DHT22;17407;51.120;3.702;2023-09-12T14:13:43;29.50;99.90
25688;DHT22;17407;51.120;3.702;2023-09-12T14:16:09;29.70;99.90
25688;DHT22;17407;51.120;3.702;2023-09-12T14:18:35;29.90;99.90
25688;DHT22;17407;51.120;3.702;2023-09-12T14:21:00;30.00;99.90
25688;DHT22;17407;51.120;3.702;2023-09-12T14:23:26;30.00;99.90
25688;DHT22;17407;51.120;3.702;2023-09-12T14:25:52;30.00;99.90
25688;DHT22;17407;51.120;3.702;2023-09-12T14:28:18;29.90;99.90
25688;DHT22;17407;51.120;3.702;2023-09-12T14:30:43;29.70;99.90
25688;DHT22;17407;51.120;3.702;2023-09-12T14:33:14;29.60;99.90
25688;DHT22;17407;51.120;3.702;2023-09-12T14:35:40;29.40;99.90
25688;DHT22;17407;51.120;3.702;2023-09-12T14:38:07;29.30;99.90
25688;DHT22;17407;51.120;3.702;2023-09-12T14:40:33;29.20;99.90
25688;DHT22;17407;51.120;3.702;2023-09-12T14:42:59;29.10;99.90
25688;DHT22;17407;51.120;3.702;2023-09-12T14:45:25;29.10;99.90
25688;DHT22;17407;51.120;3.702;2023-09-12T14:47:51;28.90;99.90
25688;DHT22;17407;51.120;3.702;2023-09-12T14:50:16;28.80;99.90
25688;DHT22;17407;51.120;3.702;2023-09-12T14:52:42;28.70;99.90
25688;DHT22;17407;51.120;3.702;2023-09-12T14:55:09;28.70;99.90
25688;DHT22;17407;51.120;3.702;2023-09-12T14:57:35;28.50;99.90
25688;DHT22;17407;51.120;3.702;2023-09-12T15:00:00;28.50;99.90
25688;DHT22;17407;51.120;3.702;2023-09-12T15:02:26;28.40;99.90
25688;DHT22;17407;51.120;3.702;2023-09-12T15:04:57;28.20;99.90
25688;DHT22;17407;51.120;3.702;2023-09-12T15:07:24;28.20;99.90
25688;DHT22;17407;51.120;3.702;2023-09-12T15:09:50;28.10;99.90
25688;DHT22;17407;51.120;3.702;2023-09-12T15:12:15;27.90;99.90
25688;DHT22;17407;51.120;3.702;2023-09-12T15:14:41;27.70;99.90
25688;DHT22;17407;51.120;3.702;2023-09-12T15:17:07;27.60;99.90
25688;DHT22;17407;51.120;3.702;2023-09-12T15:19:33;27.50;99.90
25688;DHT22;17407;51.120;3.702;2023-09-12T15:21:58;27.30;99.90
25688;DHT22;17407;51.120;3.702;2023-09-12T15:24:24;27.20;99.90
25688;DHT22;17407;51.120;3.702;2023-09-12T15:26:50;27.10;99.90
25688;DHT22;17407;51.120;3.702;2023-09-12T15:29:15;27.00;99.90
25688;DHT22;17407;51.120;3.702;2023-09-12T15:31:41;26.90;99.90
25688;DHT22;17407;51.120;3.702;2023-09-12T15:34:06;26.80;99.90
25688;DHT22;17407;51.120;3.702;2023-09-12T15:36:40;26.80;99.90
25688;DHT22;17407;51.120;3.702;2023-09-12T15:39:07;26.70;99.90
25688;DHT22;17407;51.120;3.702;2023-09-12T15:41:32;26.60;99.90
25688;DHT22;17407;51.120;3.702;2023-09-12T15:43:58;26.50;99.90
25688;DHT22;17407;51.120;3.702;2023-09-12T15:46:23;26.40;99.90